Time;durP1;ratioP1;P1;durP2;ratioP2;P2;SDS_P1;SDS_P2;PMS_P1;PMS_P2;Temp;Humidity;BMP_temperature;BMP_pressure;BME280_temperature;BME280_humidity;BME280_pressure;Samples;Min_cycle;Max_cycle;Signal;HPM_P1;HPM_P2
2023/03/24 00:02:12;;;;;;;11.10;4.83;;;;;;;;;;5077459;28;20558;-72
2023/03/24 00:04:41;;;;;;;7.40;5.57;;;;;;;;;;5077609;28;20968;-72
2023/03/24 00:07:13;;;;;;;5.53;4.80;;;;;;;;;;5077364;28;20978;-72
2023/03/24 00:09:44;;;;;;;6.70;4.67;;;;;;;;;;5077606;28;20463;-72
2023/03/24 00:12:17;;;;;;;5.43;4.73;;;;;;;;;;5077162;28;20501;-72
2023/03/24 00:14:46;;;;;;;9.43;6.10;;;;;;;;;;5076946;28;20483;-72
2023/03/24 00:17:16;;;;;;;9.67;6.53;;;;;;;;;;5077156;28;20463;-71
2023/03/24 00:19:44;;;;;;;9.13;5.80;;;;;;;;;;5077649;28;20948;-72
2023/03/24 00:22:13;;;;;;;8.23;4.60;;;;;;;;;;5077245;28;20478;-71
2023/03/24 00:24:40;;;;;;;6.03;4.67;;;;;;;;;;5077344;28;20443;-71
2023/03/24 00:27:07;;;;;;;10.07;5.60;;;;;;;;;;5077054;28;20439;-72
2023/03/24 00:29:35;;;;;;;8.20;5.33;;;;;;;;;;5076918;28;20452;-72
2023/03/24 00:32:03;;;;;;;9.27;5.43;;;;;;;;;;5076743;28;20868;-72
2023/03/24 00:34:30;;;;;;;6.07;5.30;;;;;;;;;;5076888;28;20856;-72
2023/03/24 00:36:58;;;;;;;7.70;4.90;;;;;;;;;;5076531;28;20455;-72
2023/03/24 00:39:25;;;;;;;13.57;5.30;;;;;;;;;;5077241;28;20460;-72
2023/03/24 00:41:54;;;;;;;9.33;5.83;;;;;;;;;;5076695;28;20472;-72
2023/03/24 00:44:21;;;;;;;15.40;5.93;;;;;;;;;;5076439;28;20447;-72
2023/03/24 00:46:54;;;;;;;6.60;5.13;;;;;;;;;;5076599;28;20538;-72
2023/03/24 00:49:40;;;;;;;7.40;5.30;;;;;;;;;;5076522;28;20841;-72
2023/03/24 00:52:09;;;;;;;7.23;5.53;;;;;;;;;;5076444;28;20528;-72
2023/03/24 00:54:36;;;;;;;5.93;4.97;;;;;;;;;;5075693;28;20479;-71
2023/03/24 00:57:03;;;;;;;6.80;5.20;;;;;;;;;;5076371;28;20698;-72
2023/03/24 00:59:31;;;;;;;6.97;4.83;;;;;;;;;;5076601;28;20451;-71
2023/03/24 01:01:58;;;;;;;8.67;6.23;;;;;;;;;;5075897;28;20555;-72
2023/03/24 01:04:27;;;;;;;5.93;5.10;;;;;;;;;;5075538;28;20502;-71
2023/03/24 01:06:57;;;;;;;6.50;5.30;;;;;;;;;;5075788;28;20460;-70
2023/03/24 01:09:24;;;;;;;6.93;5.40;;;;;;;;;;5075580;28;20456;-70
2023/03/24 01:11:52;;;;;;;5.97;5.37;;;;;;;;;;5075528;28;20508;-70
2023/03/24 01:14:19;;;;;;;8.60;5.17;;;;;;;;;;5075338;28;20451;-71
2023/03/24 01:16:46;;;;;;;6.87;5.63;;;;;;;;;;5075422;28;20444;-71
2023/03/24 01:19:14;;;;;;;6.80;5.50;;;;;;;;;;5075435;28;21010;-71
2023/03/24 01:21:42;;;;;;;9.53;5.83;;;;;;;;;;5075297;28;20483;-71
2023/03/24 01:24:09;;;;;;;9.00;5.93;;;;;;;;;;5075464;28;20463;-71
2023/03/24 01:26:37;;;;;;;9.03;6.20;;;;;;;;;;5075203;28;20456;-70
2023/03/24 01:29:04;;;;;;;10.33;6.30;;;;;;;;;;5075231;28;20807;-70
2023/03/24 01:31:32;;;;;;;6.37;5.77;;;;;;;;;;5075022;28;20484;-70
2023/03/24 01:33:59;;;;;;;8.30;6.47;;;;;;;;;;5074974;28;20494;-70
2023/03/24 01:36:26;;;;;;;9.03;7.07;;;;;;;;;;5074839;28;20487;-70
2023/03/24 01:38:57;;;;;;;10.00;7.37;;;;;;;;;;5074983;28;20896;-70
2023/03/24 01:41:24;;;;;;;8.90;6.37;;;;;;;;;;5075687;28;20546;-71
2023/03/24 01:43:51;;;;;;;6.43;5.70;;;;;;;;;;5075106;28;20455;-72
2023/03/24 01:46:19;;;;;;;7.73;6.50;;;;;;;;;;5075156;28;20444;-72
2023/03/24 01:48:50;;;;;;;7.43;6.70;;;;;;;;;;5075187;28;20462;-72
2023/03/24 01:51:18;;;;;;;9.33;6.43;;;;;;;;;;5075082;28;20476;-72
2023/03/24 01:53:53;;;;;;;9.03;7.07;;;;;;;;;;5074998;28;20473;-72
2023/03/24 01:56:22;;;;;;;7.33;5.73;;;;;;;;;;5075107;28;20475;-72
2023/03/24 01:58:52;;;;;;;7.43;6.07;;;;;;;;;;5075850;28;20463;-72
2023/03/24 02:01:20;;;;;;;12.97;6.37;;;;;;;;;;5074943;28;20894;-73
2023/03/24 02:03:48;;;;;;;10.10;7.00;;;;;;;;;;5075102;28;20509;-72
2023/03/24 02:06:16;;;;;;;8.30;6.50;;;;;;;;;;5074069;28;20948;-72
2023/03/24 02:08:47;;;;;;;7.23;6.00;;;;;;;;;;5075325;28;20802;-72
2023/03/24 02:11:14;;;;;;;7.90;6.27;;;;;;;;;;5074456;28;20521;-72
2023/03/24 02:13:43;;;;;;;7.90;6.30;;;;;;;;;;5074821;28;20534;-72
2023/03/24 02:16:16;;;;;;;12.00;6.50;;;;;;;;;;5074811;28;20494;-72
2023/03/24 02:18:51;;;;;;;8.70;6.83;;;;;;;;;;5075162;28;20446;-72
2023/03/24 02:21:52;;;;;;;8.20;6.83;;;;;;;;;;5074675;28;20517;-72
2023/03/24 02:24:37;;;;;;;8.73;6.83;;;;;;;;;;5032861;28;20458;-72
2023/03/24 02:27:08;;;;;;;7.10;5.33;;;;;;;;;;5032393;28;20877;-72
2023/03/24 02:29:53;;;;;;;8.17;5.37;;;;;;;;;;5058416;28;20949;-72
2023/03/24 02:32:32;;;;;;;9.47;5.97;;;;;;;;;;5074313;28;20942;-72
2023/03/24 02:35:09;;;;;;;8.60;6.67;;;;;;;;;;5074129;28;20494;-72
2023/03/24 02:37:46;;;;;;;8.53;5.90;;;;;;;;;;5074460;28;20456;-72
2023/03/24 02:40:23;;;;;;;7.73;5.60;;;;;;;;;;5074059;28;20988;-72
2023/03/24 02:42:56;;;;;;;9.63;5.77;;;;;;;;;;5074284;28;20459;-71
2023/03/24 02:45:27;;;;;;;14.87;6.87;;;;;;;;;;5073364;28;20459;-71
2023/03/24 02:48:00;;;;;;;10.57;6.53;;;;;;;;;;5073708;28;20463;-71
2023/03/24 02:50:29;;;;;;;8.47;6.00;;;;;;;;;;5073355;28;20448;-71
2023/03/24 02:53:02;;;;;;;9.80;7.00;;;;;;;;;;5073307;28;20455;-71
2023/03/24 02:55:33;;;;;;;6.43;5.83;;;;;;;;;;5073365;28;20846;-71
2023/03/24 02:58:03;;;;;;;10.70;7.80;;;;;;;;;;5073280;28;20456;-71
2023/03/24 03:00:33;;;;;;;6.70;6.00;;;;;;;;;;5073276;28;20468;-71
2023/03/24 03:03:02;;;;;;;10.57;7.43;;;;;;;;;;5073268;28;20497;-71
2023/03/24 03:05:32;;;;;;;6.37;5.73;;;;;;;;;;5072548;28;20464;-71
2023/03/24 03:08:02;;;;;;;10.10;6.50;;;;;;;;;;5073343;28;20458;-71
2023/03/24 03:10:32;;;;;;;15.30;7.40;;;;;;;;;;5073192;28;20448;-71
2023/03/24 03:13:00;;;;;;;6.37;5.70;;;;;;;;;;5073361;28;20455;-71
2023/03/24 03:15:30;;;;;;;9.87;7.00;;;;;;;;;;5073280;28;21010;-71
2023/03/24 03:17:58;;;;;;;7.67;5.50;;;;;;;;;;5073065;28;20447;-71
2023/03/24 03:20:29;;;;;;;7.90;6.23;;;;;;;;;;5073191;28;20467;-71
2023/03/24 03:22:59;;;;;;;9.90;6.30;;;;;;;;;;5073122;28;20948;-71
2023/03/24 03:25:28;;;;;;;9.23;5.93;;;;;;;;;;5072903;28;20455;-71
2023/03/24 03:27:58;;;;;;;11.23;6.80;;;;;;;;;;5072936;28;20451;-71
2023/03/24 03:30:28;;;;;;;11.30;6.63;;;;;;;;;;5072845;28;20455;-71
2023/03/24 03:32:57;;;;;;;7.70;6.20;;;;;;;;;;5073036;28;20542;-71
2023/03/24 03:35:26;;;;;;;8.07;5.77;;;;;;;;;;5072559;28;20480;-71
2023/03/24 03:37:56;;;;;;;8.03;4.83;;;;;;;;;;5073006;28;20828;-71
2023/03/24 03:40:24;;;;;;;5.80;5.00;;;;;;;;;;5072897;28;20940;-72
2023/03/24 03:42:52;;;;;;;9.00;6.13;;;;;;;;;;5072824;28;20459;-71
2023/03/24 03:45:20;;;;;;;7.17;5.70;;;;;;;;;;5072482;28;20574;-71
2023/03/24 03:47:47;;;;;;;6.23;5.23;;;;;;;;;;5072858;28;20827;-71
2023/03/24 03:50:14;;;;;;;7.27;5.80;;;;;;;;;;5072943;28;20452;-71
2023/03/24 03:52:43;;;;;;;8.70;5.40;;;;;;;;;;5072837;28;20459;-71
2023/03/24 03:55:10;;;;;;;7.13;6.00;;;;;;;;;;5072447;28;20458;-71
2023/03/24 03:57:38;;;;;;;6.93;5.73;;;;;;;;;;5072685;28;20458;-71
2023/03/24 04:00:10;;;;;;;7.67;6.50;;;;;;;;;;5072658;28;20976;-71
2023/03/24 04:02:43;;;;;;;12.63;8.10;;;;;;;;;;5072688;28;20447;-71
2023/03/24 04:05:16;;;;;;;7.50;6.47;;;;;;;;;;5072254;28;20446;-72
2023/03/24 04:07:48;;;;;;;7.57;5.30;;;;;;;;;;5072669;28;20456;-71
2023/03/24 04:10:17;;;;;;;8.10;6.10;;;;;;;;;;5072609;28;20451;-71
2023/03/24 04:12:50;;;;;;;8.00;7.20;;;;;;;;;;5072656;28;20529;-71
2023/03/24 04:15:29;;;;;;;6.90;5.77;;;;;;;;;;5072213;28;20478;-71
2023/03/24 04:18:04;;;;;;;8.90;6.90;;;;;;;;;;5072636;28;20463;-71
2023/03/24 04:20:37;;;;;;;7.20;6.50;;;;;;;;;;5072629;28;20486;-71
2023/03/24 04:23:08;;;;;;;8.00;5.57;;;;;;;;;;5072478;28;20451;-71
2023/03/24 04:25:39;;;;;;;6.80;6.20;;;;;;;;;;5072447;28;20454;-71
2023/03/24 04:28:09;;;;;;;8.20;6.00;;;;;;;;;;5072374;28;20488;-71
2023/03/24 04:30:41;;;;;;;7.13;5.33;;;;;;;;;;5074672;28;20483;-71
2023/03/24 04:33:16;;;;;;;7.63;6.87;;;;;;;;;;5075995;28;20467;-71
2023/03/24 04:35:45;;;;;;;8.80;6.03;;;;;;;;;;5075819;28;20528;-71
2023/03/24 04:38:16;;;;;;;9.00;6.40;;;;;;;;;;5075939;28;20455;-71
2023/03/24 04:40:48;;;;;;;11.43;6.00;;;;;;;;;;5075817;28;20472;-71
2023/03/24 04:43:17;;;;;;;8.00;5.93;;;;;;;;;;5075842;28;20442;-72
2023/03/24 04:45:48;;;;;;;9.00;6.20;;;;;;;;;;5075528;28;20447;-72
2023/03/24 04:48:18;;;;;;;12.00;6.17;;;;;;;;;;5075593;28;20471;-71
2023/03/24 04:50:50;;;;;;;7.90;7.07;;;;;;;;;;5075619;28;20502;-71
2023/03/24 04:53:18;;;;;;;7.90;7.10;;;;;;;;;;5075833;28;20451;-71
2023/03/24 04:55:51;;;;;;;8.33;6.23;;;;;;;;;;5075363;28;20570;-71
2023/03/24 04:58:19;;;;;;;7.33;6.10;;;;;;;;;;5075737;28;20967;-71
2023/03/24 05:00:47;;;;;;;10.23;6.93;;;;;;;;;;5076133;28;20460;-72
2023/03/24 05:03:15;;;;;;;14.50;7.90;;;;;;;;;;5076018;28;20459;-72
2023/03/24 05:05:45;;;;;;;7.60;5.20;;;;;;;;;;5075507;28;20451;-72
2023/03/24 05:08:13;;;;;;;12.83;8.43;;;;;;;;;;5075726;28;20509;-72
2023/03/24 05:10:40;;;;;;;8.40;7.30;;;;;;;;;;5075805;28;20476;-72
2023/03/24 05:13:08;;;;;;;8.03;6.20;;;;;;;;;;5075890;28;20859;-72
2023/03/24 05:15:35;;;;;;;12.53;8.00;;;;;;;;;;5075484;28;20972;-72
2023/03/24 05:18:03;;;;;;;13.63;9.63;;;;;;;;;;5075879;28;20451;-71
2023/03/24 05:20:30;;;;;;;12.83;9.27;;;;;;;;;;5075769;28;20444;-72
2023/03/24 05:22:58;;;;;;;13.30;7.67;;;;;;;;;;5075432;28;20889;-72
2023/03/24 05:25:25;;;;;;;9.80;7.03;;;;;;;;;;5075099;28;20464;-71
2023/03/24 05:27:52;;;;;;;12.70;7.60;;;;;;;;;;5075085;28;20455;-71
2023/03/24 05:30:20;;;;;;;13.93;10.23;;;;;;;;;;5074866;28;20952;-71
2023/03/24 05:32:47;;;;;;;13.17;8.57;;;;;;;;;;5075275;28;21002;-71
2023/03/24 05:35:14;;;;;;;9.20;8.17;;;;;;;;;;5074563;28;20975;-71
2023/03/24 05:37:41;;;;;;;7.67;6.90;;;;;;;;;;5074950;28;20835;-71
2023/03/24 05:40:10;;;;;;;9.23;6.83;;;;;;;;;;5074796;28;20452;-71
2023/03/24 05:42:37;;;;;;;9.90;7.03;;;;;;;;;;5075013;28;20953;-71
2023/03/24 05:45:05;;;;;;;9.47;7.13;;;;;;;;;;5075002;28;20870;-71
2023/03/24 05:47:32;;;;;;;11.00;6.70;;;;;;;;;;5075051;28;20467;-72
2023/03/24 05:50:00;;;;;;;16.23;12.67;;;;;;;;;;5074872;28;20552;-71
2023/03/24 05:52:27;;;;;;;11.17;9.97;;;;;;;;;;5074408;28;20482;-71
2023/03/24 05:54:54;;;;;;;10.23;6.50;;;;;;;;;;5074533;28;20469;-71
2023/03/24 05:57:22;;;;;;;7.13;5.67;;;;;;;;;;5074039;28;20494;-71
2023/03/24 05:59:50;;;;;;;7.07;6.37;;;;;;;;;;5074597;28;20455;-71
2023/03/24 06:02:18;;;;;;;13.17;9.20;;;;;;;;;;5073950;28;20479;-71
2023/03/24 06:04:47;;;;;;;24.90;16.70;;;;;;;;;;5073163;28;20831;-71
2023/03/24 06:07:15;;;;;;;29.57;21.17;;;;;;;;;;5073301;28;20456;-71
2023/03/24 06:09:45;;;;;;;21.30;15.70;;;;;;;;;;5074140;28;20490;-71
2023/03/24 06:12:13;;;;;;;8.93;7.10;;;;;;;;;;5073938;28;20475;-71
2023/03/24 06:14:41;;;;;;;8.30;6.23;;;;;;;;;;5073787;28;20822;-70
2023/03/24 06:17:15;;;;;;;7.83;7.00;;;;;;;;;;5073548;28;20496;-70
2023/03/24 06:19:47;;;;;;;6.57;5.83;;;;;;;;;;5073889;28;20551;-70
2023/03/24 06:22:16;;;;;;;9.77;7.67;;;;;;;;;;5073693;28;20984;-71
2023/03/24 06:24:43;;;;;;;8.30;6.13;;;;;;;;;;5074022;28;20886;-70
2023/03/24 06:27:10;;;;;;;9.80;6.80;;;;;;;;;;5073506;28;20458;-70
2023/03/24 06:29:37;;;;;;;10.60;5.50;;;;;;;;;;5073609;28;20456;-70
2023/03/24 06:32:06;;;;;;;8.10;5.60;;;;;;;;;;5073258;28;20483;-70
2023/03/24 06:34:33;;;;;;;8.33;5.90;;;;;;;;;;5073644;28;20443;-70
2023/03/24 06:37:00;;;;;;;5.03;4.50;;;;;;;;;;5073312;28;20849;-70
2023/03/24 06:39:28;;;;;;;5.53;5.00;;;;;;;;;;5073250;28;20550;-70
2023/03/24 06:41:56;;;;;;;5.93;5.33;;;;;;;;;;5073438;28;20870;-70
2023/03/24 06:44:23;;;;;;;8.13;5.10;;;;;;;;;;5072996;28;20459;-70
2023/03/24 06:46:50;;;;;;;6.67;5.60;;;;;;;;;;5073311;28;20455;-70
2023/03/24 06:49:19;;;;;;;6.03;4.80;;;;;;;;;;5072731;28;20451;-70
2023/03/24 06:51:46;;;;;;;5.43;4.93;;;;;;;;;;5052794;28;21013;-70
2023/03/24 06:54:13;;;;;;;6.83;5.03;;;;;;;;;;5052903;28;20647;-72
2023/03/24 06:56:40;;;;;;;6.77;5.50;;;;;;;;;;5053386;28;20977;-71
2023/03/24 06:59:08;;;;;;;7.23;4.70;;;;;;;;;;5063165;28;20452;-71
2023/03/24 07:01:36;;;;;;;8.60;4.40;;;;;;;;;;5073583;28;20468;-71
2023/03/24 07:04:03;;;;;;;5.93;5.33;;;;;;;;;;5073348;28;20464;-72
2023/03/24 07:06:33;;;;;;;6.13;5.60;;;;;;;;;;5072876;28;20451;-71
2023/03/24 07:09:01;;;;;;;6.13;5.53;;;;;;;;;;5073705;28;20449;-71
2023/03/24 07:11:28;;;;;;;5.70;5.20;;;;;;;;;;5073034;28;20471;-72
2023/03/24 07:13:55;;;;;;;6.73;5.40;;;;;;;;;;5073329;28;20798;-71
2023/03/24 07:16:22;;;;;;;8.70;6.57;;;;;;;;;;5073052;28;20490;-71
2023/03/24 07:18:50;;;;;;;6.77;5.63;;;;;;;;;;5073279;28;20475;-71
2023/03/24 07:21:17;;;;;;;9.70;5.77;;;;;;;;;;5072994;28;20506;-71
2023/03/24 07:23:46;;;;;;;10.13;5.30;;;;;;;;;;5073148;28;20454;-72
2023/03/24 07:26:13;;;;;;;5.37;4.60;;;;;;;;;;5073201;28;20471;-72
2023/03/24 07:28:40;;;;;;;7.10;5.73;;;;;;;;;;5073703;28;20961;-72
2023/03/24 07:31:09;;;;;;;6.77;5.70;;;;;;;;;;5073076;28;20502;-72
2023/03/24 07:33:37;;;;;;;5.10;4.60;;;;;;;;;;5073176;28;20460;-72
2023/03/24 07:36:05;;;;;;;8.43;5.00;;;;;;;;;;5073539;28;20483;-72
2023/03/24 07:38:33;;;;;;;9.60;5.10;;;;;;;;;;5073520;28;20487;-72
2023/03/24 07:41:02;;;;;;;6.17;4.17;;;;;;;;;;5073496;28;20475;-72
2023/03/24 07:43:29;;;;;;;9.23;8.33;;;;;;;;;;5073210;28;20455;-72
2023/03/24 07:45:56;;;;;;;9.20;5.47;;;;;;;;;;5073717;28;20902;-72
2023/03/24 07:48:23;;;;;;;11.47;6.80;;;;;;;;;;5073275;28;20454;-72
2023/03/24 07:50:50;;;;;;;5.47;4.77;;;;;;;;;;5073319;28;20968;-72
2023/03/24 07:53:18;;;;;;;11.50;5.40;;;;;;;;;;5073162;28;20835;-71
2023/03/24 07:55:46;;;;;;;8.93;5.40;;;;;;;;;;5073125;28;20447;-71
2023/03/24 07:58:15;;;;;;;6.47;5.60;;;;;;;;;;5073002;28;20471;-71
2023/03/24 08:00:42;;;;;;;5.83;5.10;;;;;;;;;;5070041;28;20480;-72
2023/03/24 08:03:12;;;;;;;12.10;8.53;;;;;;;;;;5071540;28;20451;-72
2023/03/24 08:05:40;;;;;;;6.53;5.83;;;;;;;;;;5073732;28;20459;-72
2023/03/24 08:08:08;;;;;;;4.97;4.53;;;;;;;;;;5075327;28;20447;-72
2023/03/24 08:10:35;;;;;;;8.30;5.03;;;;;;;;;;5075791;28;20463;-72
2023/03/24 08:13:02;;;;;;;18.93;5.63;;;;;;;;;;5075339;28;20455;-70
2023/03/24 08:15:31;;;;;;;11.57;8.73;;;;;;;;;;5074849;28;20459;-70
2023/03/24 08:17:58;;;;;;;8.20;6.50;;;;;;;;;;5075000;28;20557;-70
2023/03/24 08:20:28;;;;;;;11.73;5.60;;;;;;;;;;5074649;28;20542;-70
2023/03/24 08:22:55;;;;;;;5.93;4.87;;;;;;;;;;5074662;28;20542;-70
2023/03/24 08:25:24;;;;;;;5.87;5.00;;;;;;;;;;5074655;28;20455;-70
2023/03/24 08:27:51;;;;;;;7.80;5.23;;;;;;;;;;5074883;28;20454;-70
2023/03/24 08:30:19;;;;;;;5.07;4.37;;;;;;;;;;5074272;28;20463;-69
2023/03/24 08:32:49;;;;;;;6.00;4.80;;;;;;;;;;5075213;28;20527;-70
2023/03/24 08:35:17;;;;;;;8.90;5.63;;;;;;;;;;5074326;28;20466;-70
2023/03/24 08:37:45;;;;;;;11.70;8.47;;;;;;;;;;5074301;28;20494;-70
2023/03/24 08:40:16;;;;;;;7.90;6.97;;;;;;;;;;5074332;28;20532;-70
2023/03/24 08:42:43;;;;;;;5.67;5.10;;;;;;;;;;5074534;28;20505;-70
2023/03/24 08:45:11;;;;;;;6.87;5.30;;;;;;;;;;5073880;28;20451;-70
2023/03/24 08:47:39;;;;;;;6.30;4.60;;;;;;;;;;5074428;28;20937;-70
2023/03/24 08:50:09;;;;;;;5.13;4.43;;;;;;;;;;5074374;28;20455;-70
2023/03/24 08:52:36;;;;;;;4.93;4.40;;;;;;;;;;5074462;28;20501;-70
2023/03/24 08:55:03;;;;;;;5.30;4.57;;;;;;;;;;5060024;28;20456;-70
2023/03/24 08:57:31;;;;;;;8.00;4.93;;;;;;;;;;5054153;28;20488;-70
2023/03/24 08:59:58;;;;;;;7.13;4.40;;;;;;;;;;5054962;28;20457;-70
2023/03/24 09:02:26;;;;;;;10.90;4.07;;;;;;;;;;5053957;28;20480;-70
2023/03/24 09:04:54;;;;;;;6.70;4.00;;;;;;;;;;5053970;28;20453;-71
2023/03/24 09:07:23;;;;;;;5.27;4.70;;;;;;;;;;5053558;28;20460;-70
2023/03/24 09:09:50;;;;;;;7.73;5.10;;;;;;;;;;5053858;28;20457;-70
2023/03/24 09:12:18;;;;;;;7.87;6.90;;;;;;;;;;5052749;28;20489;-71
2023/03/24 09:14:48;;;;;;;9.47;5.23;;;;;;;;;;5053935;28;20456;-70
2023/03/24 09:17:16;;;;;;;5.47;4.10;;;;;;;;;;5053280;28;21012;-71
2023/03/24 09:19:43;;;;;;;6.60;4.70;;;;;;;;;;5053966;28;20828;-71
2023/03/24 09:22:10;;;;;;;6.90;5.80;;;;;;;;;;5053582;28;20568;-71
2023/03/24 09:24:39;;;;;;;7.17;4.80;;;;;;;;;;5053642;28;20480;-72
2023/03/24 09:27:06;;;;;;;5.10;4.67;;;;;;;;;;5053789;28;20464;-72
2023/03/24 09:29:33;;;;;;;8.03;4.80;;;;;;;;;;5053587;28;20464;-72
2023/03/24 09:32:00;;;;;;;5.90;4.70;;;;;;;;;;5053631;28;20857;-72
2023/03/24 09:34:27;;;;;;;5.57;4.53;;;;;;;;;;5053519;28;20467;-72
2023/03/24 09:36:54;;;;;;;4.67;4.27;;;;;;;;;;5054110;28;20464;-72
2023/03/24 09:39:22;;;;;;;8.53;5.70;;;;;;;;;;5054029;28;20461;-74
2023/03/24 09:41:51;;;;;;;8.03;5.73;;;;;;;;;;5054567;28;20468;-73
2023/03/24 09:44:23;;;;;;;5.90;5.40;;;;;;;;;;5054199;28;20460;-72
2023/03/24 09:46:52;;;;;;;13.10;4.83;;;;;;;;;;5055052;28;20449;-72
2023/03/24 09:49:24;;;;;;;5.70;4.70;;;;;;;;;;5055002;28;20453;-72
2023/03/24 09:51:55;;;;;;;8.80;5.00;;;;;;;;;;5054869;28;20523;-72
2023/03/24 09:54:27;;;;;;;7.57;5.90;;;;;;;;;;5054805;28;20463;-72
2023/03/24 09:56:56;;;;;;;9.67;7.10;;;;;;;;;;5055654;28;20460;-74
2023/03/24 09:59:30;;;;;;;8.47;5.37;;;;;;;;;;5054628;28;20489;-72
2023/03/24 10:01:58;;;;;;;5.33;4.83;;;;;;;;;;5054900;28;20461;-73
2023/03/24 10:04:26;;;;;;;10.90;5.80;;;;;;;;;;5054549;28;20463;-72
2023/03/24 10:06:57;;;;;;;5.00;4.50;;;;;;;;;;5054157;28;20457;-73
2023/03/24 10:09:26;;;;;;;8.90;4.67;;;;;;;;;;5054785;28;20448;-72
2023/03/24 10:12:00;;;;;;;9.50;4.30;;;;;;;;;;5054478;28;20977;-72
2023/03/24 10:14:32;;;;;;;5.37;4.90;;;;;;;;;;5054236;28;20436;-73
2023/03/24 10:17:02;;;;;;;6.93;5.67;;;;;;;;;;5054391;28;20460;-72
2023/03/24 10:19:37;;;;;;;5.83;5.17;;;;;;;;;;5054427;28;20579;-72
2023/03/24 10:22:06;;;;;;;6.80;5.23;;;;;;;;;;5054683;28;20512;-72
2023/03/24 10:24:36;;;;;;;6.47;5.10;;;;;;;;;;5054362;28;20536;-72
2023/03/24 10:27:10;;;;;;;7.30;5.50;;;;;;;;;;5053511;28;20444;-72
2023/03/24 10:29:38;;;;;;;7.50;6.20;;;;;;;;;;5054429;28;21043;-72
2023/03/24 10:32:06;;;;;;;6.97;5.73;;;;;;;;;;5053907;28;20575;-72
2023/03/24 10:34:34;;;;;;;5.73;5.13;;;;;;;;;;5053904;28;20938;-72
2023/03/24 10:37:02;;;;;;;7.10;5.80;;;;;;;;;;5053962;28;20460;-73
2023/03/24 10:39:30;;;;;;;16.53;5.70;;;;;;;;;;5053693;28;20840;-72
2023/03/24 10:41:58;;;;;;;6.70;5.40;;;;;;;;;;5054054;28;20943;-72
2023/03/24 10:44:27;;;;;;;4.17;3.20;;;;;;;;;;5053672;28;20464;-72
2023/03/24 10:46:56;;;;;;;4.33;3.93;;;;;;;;;;5053814;28;20555;-72
2023/03/24 10:49:25;;;;;;;4.60;3.90;;;;;;;;;;5053710;28;20981;-72
2023/03/24 10:51:55;;;;;;;5.00;3.97;;;;;;;;;;5053506;28;20516;-72
2023/03/24 10:54:23;;;;;;;5.70;5.07;;;;;;;;;;5053492;28;20467;-72
2023/03/24 10:56:51;;;;;;;6.00;4.13;;;;;;;;;;5053638;28;20455;-72
2023/03/24 10:59:26;;;;;;;4.77;4.00;;;;;;;;;;5053801;28;20560;-73
2023/03/24 11:01:58;;;;;;;4.77;4.37;;;;;;;;;;5053618;28;20472;-72
2023/03/24 11:04:25;;;;;;;5.70;5.10;;;;;;;;;;5053672;28;20460;-72
2023/03/24 11:07:00;;;;;;;10.20;7.03;;;;;;;;;;5053080;28;20514;-72
2023/03/24 11:09:27;;;;;;;8.00;6.40;;;;;;;;;;5053248;28;20518;-72
2023/03/24 11:11:57;;;;;;;6.90;5.70;;;;;;;;;;5053256;28;20476;-72
2023/03/24 11:14:25;;;;;;;5.17;4.67;;;;;;;;;;5052819;28;20461;-72
2023/03/24 11:16:53;;;;;;;7.67;5.20;;;;;;;;;;5053267;28;20456;-72
2023/03/24 11:19:22;;;;;;;4.73;4.17;;;;;;;;;;5052841;28;20488;-72
2023/03/24 11:21:50;;;;;;;6.33;4.90;;;;;;;;;;5052760;28;20495;-71
2023/03/24 11:24:19;;;;;;;6.17;4.30;;;;;;;;;;5070635;28;20517;-72
2023/03/24 11:26:47;;;;;;;6.80;5.63;;;;;;;;;;5072975;28;20811;-72
2023/03/24 11:29:15;;;;;;;5.40;4.90;;;;;;;;;;5073011;28;20451;-72
2023/03/24 11:31:43;;;;;;;7.00;5.60;;;;;;;;;;5072139;28;20483;-73
2023/03/24 11:34:11;;;;;;;7.93;5.10;;;;;;;;;;5073054;28;20447;-72
2023/03/24 11:36:47;;;;;;;4.50;4.00;;;;;;;;;;5073331;28;20956;-72
2023/03/24 11:39:17;;;;;;;9.37;6.53;;;;;;;;;;5076441;28;20494;-73
2023/03/24 11:41:51;;;;;;;6.73;5.10;;;;;;;;;;5079502;28;20479;-72
2023/03/24 11:44:19;;;;;;;6.67;4.70;;;;;;;;;;5079693;28;20920;-73
2023/03/24 11:46:48;;;;;;;5.57;4.80;;;;;;;;;;5079670;28;20462;-72
2023/03/24 11:49:18;;;;;;;10.00;5.10;;;;;;;;;;5079481;28;20447;-73
2023/03/24 11:51:48;;;;;;;6.57;4.87;;;;;;;;;;5079472;28;20474;-73
2023/03/24 11:54:17;;;;;;;11.23;4.97;;;;;;;;;;5079526;28;20550;-72
2023/03/24 11:56:46;;;;;;;5.33;4.60;;;;;;;;;;5079502;28;20447;-73
2023/03/24 11:59:20;;;;;;;5.60;5.00;;;;;;;;;;5079400;28;20544;-73
2023/03/24 12:01:49;;;;;;;6.10;5.50;;;;;;;;;;5079494;28;20471;-73
2023/03/24 12:04:21;;;;;;;7.13;5.27;;;;;;;;;;5079283;28;20451;-73
2023/03/24 12:06:57;;;;;;;7.00;6.00;;;;;;;;;;5079303;28;20475;-72
2023/03/24 12:09:30;;;;;;;6.83;4.93;;;;;;;;;;5079316;28;20505;-73
2023/03/24 12:12:04;;;;;;;6.57;5.27;;;;;;;;;;5079368;28;20479;-73
2023/03/24 12:14:35;;;;;;;6.30;5.70;;;;;;;;;;5079323;28;20458;-73
2023/03/24 12:17:06;;;;;;;7.77;5.77;;;;;;;;;;5079381;28;20454;-73
2023/03/24 12:19:41;;;;;;;8.50;6.90;;;;;;;;;;5079182;28;20544;-73
2023/03/24 12:22:17;;;;;;;14.83;7.10;;;;;;;;;;5079175;28;20478;-73
2023/03/24 12:24:52;;;;;;;8.10;6.60;;;;;;;;;;5079203;28;20451;-73
2023/03/24 12:27:26;;;;;;;13.30;7.90;;;;;;;;;;5079328;28;20495;-73
2023/03/24 12:29:58;;;;;;;11.70;7.40;;;;;;;;;;5079115;28;20448;-73
2023/03/24 12:32:35;;;;;;;9.07;6.50;;;;;;;;;;5078786;28;20494;-73
2023/03/24 12:35:20;;;;;;;9.03;6.57;;;;;;;;;;5078925;28;20459;-73
2023/03/24 12:37:56;;;;;;;6.73;5.70;;;;;;;;;;5079010;28;20455;-73
2023/03/24 12:40:32;;;;;;;18.63;5.70;;;;;;;;;;5078772;28;20455;-73
2023/03/24 12:43:05;;;;;;;5.60;5.00;;;;;;;;;;5079002;28;20481;-73
2023/03/24 12:45:36;;;;;;;18.33;10.20;;;;;;;;;;5076989;28;20455;-73
2023/03/24 12:48:11;;;;;;;7.63;5.37;;;;;;;;;;5077797;28;20455;-74
2023/03/24 12:50:45;;;;;;;7.53;6.67;;;;;;;;;;5075808;28;20995;-73
2023/03/24 12:53:21;;;;;;;17.67;11.70;;;;;;;;;;5074252;28;20458;-73
2023/03/24 12:55:51;;;;;;;9.70;6.33;;;;;;;;;;5075025;28;20840;-74
2023/03/24 12:58:20;;;;;;;8.40;5.80;;;;;;;;;;5074548;28;20487;-73
2023/03/24 13:00:52;;;;;;;9.13;6.20;;;;;;;;;;5074609;28;20484;-74
2023/03/24 13:03:22;;;;;;;6.80;5.93;;;;;;;;;;5074517;28;20546;-74
2023/03/24 13:05:54;;;;;;;9.27;6.20;;;;;;;;;;5074513;28;20546;-74
2023/03/24 13:08:28;;;;;;;8.57;5.43;;;;;;;;;;5074114;28;20460;-73
2023/03/24 13:10:58;;;;;;;7.73;5.90;;;;;;;;;;5074177;28;20549;-73
2023/03/24 13:13:28;;;;;;;10.63;6.33;;;;;;;;;;5074020;28;20529;-73
2023/03/24 13:15:56;;;;;;;7.93;5.37;;;;;;;;;;5074250;28;21036;-73
2023/03/24 13:18:28;;;;;;;9.50;5.90;;;;;;;;;;5073878;28;20573;-74
2023/03/24 13:20:57;;;;;;;13.97;7.53;;;;;;;;;;5074033;28;20848;-73
2023/03/24 13:23:33;;;;;;;8.63;6.37;;;;;;;;;;5074161;28;20471;-73
2023/03/24 13:26:05;;;;;;;5.67;5.07;;;;;;;;;;5074047;28;20455;-73
2023/03/24 13:28:34;;;;;;;6.80;5.63;;;;;;;;;;5074060;28;20924;-73
2023/03/24 13:31:03;;;;;;;15.30;7.40;;;;;;;;;;5073657;28;20841;-73
2023/03/24 13:33:31;;;;;;;9.10;5.90;;;;;;;;;;5073970;28;20462;-73
2023/03/24 13:36:04;;;;;;;6.20;5.57;;;;;;;;;;5073788;28;20456;-73
2023/03/24 13:38:36;;;;;;;5.17;4.50;;;;;;;;;;5073811;28;20487;-73
2023/03/24 13:41:05;;;;;;;10.63;6.33;;;;;;;;;;5073638;28;20480;-73
2023/03/24 13:43:34;;;;;;;7.17;5.93;;;;;;;;;;5073514;28;20452;-73
2023/03/24 13:46:02;;;;;;;9.80;8.43;;;;;;;;;;5073775;28;20456;-73
2023/03/24 13:48:33;;;;;;;7.20;5.33;;;;;;;;;;5073386;28;20464;-73
2023/03/24 13:51:02;;;;;;;11.43;4.77;;;;;;;;;;5073443;28;20506;-73
2023/03/24 13:53:33;;;;;;;6.53;5.03;;;;;;;;;;5073276;28;20456;-73
2023/03/24 13:56:03;;;;;;;7.03;4.77;;;;;;;;;;5073622;28;20827;-73
2023/03/24 13:58:45;;;;;;;6.47;5.17;;;;;;;;;;5072952;28;21001;-73
2023/03/24 14:01:31;;;;;;;9.10;5.93;;;;;;;;;;5073426;28;20471;-74
2023/03/24 14:04:17;;;;;;;7.83;6.83;;;;;;;;;;5072804;28;20992;-73
2023/03/24 14:06:45;;;;;;;8.20;5.97;;;;;;;;;;5073252;28;20454;-73
2023/03/24 14:09:16;;;;;;;6.70;5.07;;;;;;;;;;5073674;28;20459;-73
2023/03/24 14:11:52;;;;;;;10.47;8.03;;;;;;;;;;5073500;28;20538;-73
2023/03/24 14:14:23;;;;;;;14.57;9.80;;;;;;;;;;5074047;28;20451;-73
2023/03/24 14:16:51;;;;;;;21.47;11.80;;;;;;;;;;5074244;28;20513;-74
2023/03/24 14:19:20;;;;;;;25.90;15.63;;;;;;;;;;5073894;28;20487;-73
2023/03/24 14:21:52;;;;;;;10.70;6.80;;;;;;;;;;5073925;28;20498;-73
2023/03/24 14:24:24;;;;;;;7.70;6.90;;;;;;;;;;5073751;28;20502;-73
2023/03/24 14:26:53;;;;;;;9.23;5.43;;;;;;;;;;5074062;28;20467;-73
2023/03/24 14:29:37;;;;;;;16.07;12.50;;;;;;;;;;5073907;28;20532;-72
2023/03/24 14:32:04;;;;;;;9.53;7.33;;;;;;;;;;5073703;28;20479;-73
2023/03/24 14:34:32;;;;;;;7.50;6.20;;;;;;;;;;5073752;28;20440;-73
2023/03/24 14:37:02;;;;;;;5.60;4.37;;;;;;;;;;5073701;28;20790;-73
2023/03/24 14:39:34;;;;;;;10.30;7.20;;;;;;;;;;5073590;28;20544;-73
2023/03/24 14:42:22;;;;;;;6.40;5.30;;;;;;;;;;5073042;28;21064;-73
2023/03/24 14:44:53;;;;;;;7.70;5.40;;;;;;;;;;5073126;28;20521;-73
2023/03/24 14:47:21;;;;;;;5.80;5.20;;;;;;;;;;5073488;28;20458;-73
2023/03/24 14:49:50;;;;;;;9.73;6.77;;;;;;;;;;5073492;28;20444;-73
2023/03/24 14:52:19;;;;;;;6.27;5.07;;;;;;;;;;5073305;28;20889;-73
2023/03/24 14:54:48;;;;;;;7.73;6.57;;;;;;;;;;5073285;28;20451;-73
2023/03/24 14:57:20;;;;;;;6.90;5.30;;;;;;;;;;5073362;28;20943;-73